sensor_id;sensor_type;location;lat;lon;timestamp;temperature;humidity
66337;SHT30;53139;45.576;5.304;2023-02-25T00:00:52;7.57;97.25
66337;SHT30;53139;45.576;5.304;2023-02-25T00:03:54;7.54;97.08
66337;SHT30;53139;45.576;5.304;2023-02-25T00:06:55;7.46;97.22
66337;SHT30;53139;45.576;5.304;2023-02-25T00:09:55;7.46;96.81
66337;SHT30;53139;45.576;5.304;2023-02-25T00:12:56;7.51;96.53
66337;SHT30;53139;45.576;5.304;2023-02-25T00:15:56;7.52;96.24
66337;SHT30;53139;45.576;5.304;2023-02-25T00:18:57;7.41;97.55
66337;SHT30;53139;45.576;5.304;2023-02-25T00:21:58;7.34;98.18
66337;SHT30;53139;45.576;5.304;2023-02-25T00:24:58;7.35;98.33
66337;SHT30;53139;45.576;5.304;2023-02-25T00:27:58;7.41;98.37
66337;SHT30;53139;45.576;5.304;2023-02-25T00:30:59;7.33;98.45
66337;SHT30;53139;45.576;5.304;2023-02-25T00:33:59;7.28;98.61
66337;SHT30;53139;45.576;5.304;2023-02-25T00:37:00;7.30;98.80
66337;SHT30;53139;45.576;5.304;2023-02-25T00:40:00;7.41;98.68
66337;SHT30;53139;45.576;5.304;2023-02-25T00:43:00;7.40;98.42
66337;SHT30;53139;45.576;5.304;2023-02-25T00:46:01;7.43;98.62
66337;SHT30;53139;45.576;5.304;2023-02-25T00:49:02;7.38;99.01
66337;SHT30;53139;45.576;5.304;2023-02-25T00:52:02;7.40;98.73
66337;SHT30;53139;45.576;5.304;2023-02-25T00:55:04;7.40;98.80
66337;SHT30;53139;45.576;5.304;2023-02-25T00:58:05;7.46;98.27
66337;SHT30;53139;45.576;5.304;2023-02-25T01:04:18;7.46;97.90
66337;SHT30;53139;45.576;5.304;2023-02-25T01:07:18;7.51;97.90
66337;SHT30;53139;45.576;5.304;2023-02-25T01:10:21;7.48;97.99
66337;SHT30;53139;45.576;5.304;2023-02-25T01:13:21;7.50;97.95
66337;SHT30;53139;45.576;5.304;2023-02-25T01:16:24;7.43;98.28
66337;SHT30;53139;45.576;5.304;2023-02-25T01:19:25;7.46;98.09
66337;SHT30;53139;45.576;5.304;2023-02-25T01:22:26;7.51;97.40
66337;SHT30;53139;45.576;5.304;2023-02-25T01:25:26;7.52;97.20
66337;SHT30;53139;45.576;5.304;2023-02-25T01:28:27;7.38;98.07
66337;SHT30;53139;45.576;5.304;2023-02-25T01:31:27;7.38;98.18
66337;SHT30;53139;45.576;5.304;2023-02-25T01:34:28;7.37;98.31
66337;SHT30;53139;45.576;5.304;2023-02-25T01:37:29;7.35;98.66
66337;SHT30;53139;45.576;5.304;2023-02-25T01:40:30;7.44;98.23
66337;SHT30;53139;45.576;5.304;2023-02-25T01:43:30;7.46;98.10
66337;SHT30;53139;45.576;5.304;2023-02-25T01:46:31;7.46;97.83
66337;SHT30;53139;45.576;5.304;2023-02-25T01:52:36;7.41;97.62
66337;SHT30;53139;45.576;5.304;2023-02-25T01:55:39;7.41;97.81
66337;SHT30;53139;45.576;5.304;2023-02-25T01:58:40;7.40;97.72
66337;SHT30;53139;45.576;5.304;2023-02-25T02:01:41;7.31;97.86
66337;SHT30;53139;45.576;5.304;2023-02-25T02:04:43;7.35;97.95
66337;SHT30;53139;45.576;5.304;2023-02-25T02:07:46;7.38;97.76
66337;SHT30;53139;45.576;5.304;2023-02-25T02:10:47;7.44;97.95
66337;SHT30;53139;45.576;5.304;2023-02-25T02:13:52;7.38;98.49
66337;SHT30;53139;45.576;5.304;2023-02-25T02:46:19;6.99;94.74
66337;SHT30;53139;45.576;5.304;2023-02-25T02:49:27;6.91;94.59
66337;SHT30;53139;45.576;5.304;2023-02-25T02:52:31;6.85;94.48
66337;SHT30;53139;45.576;5.304;2023-02-25T02:55:35;6.76;93.53
66337;SHT30;53139;45.576;5.304;2023-02-25T02:58:49;6.76;94.19
66337;SHT30;53139;45.576;5.304;2023-02-25T03:01:58;6.71;93.64
66337;SHT30;53139;45.576;5.304;2023-02-25T03:05:07;6.65;93.41
66337;SHT30;53139;45.576;5.304;2023-02-25T03:08:14;6.69;94.44
66337;SHT30;53139;45.576;5.304;2023-02-25T03:11:16;6.68;93.44
66337;SHT30;53139;45.576;5.304;2023-02-25T03:14:17;6.61;93.34
66337;SHT30;53139;45.576;5.304;2023-02-25T03:17:26;6.57;92.71
66337;SHT30;53139;45.576;5.304;2023-02-25T03:20:31;6.48;93.40
66337;SHT30;53139;45.576;5.304;2023-02-25T03:23:35;6.47;92.80
66337;SHT30;53139;45.576;5.304;2023-02-25T03:26:38;6.50;92.43
66337;SHT30;53139;45.576;5.304;2023-02-25T03:29:41;6.50;92.68
66337;SHT30;53139;45.576;5.304;2023-02-25T03:33:02;6.48;92.12
66337;SHT30;53139;45.576;5.304;2023-02-25T03:36:09;6.45;91.54
66337;SHT30;53139;45.576;5.304;2023-02-25T03:39:14;6.41;91.53
66337;SHT30;53139;45.576;5.304;2023-02-25T03:42:19;6.42;91.59
66337;SHT30;53139;45.576;5.304;2023-02-25T03:45:22;6.41;91.85
66337;SHT30;53139;45.576;5.304;2023-02-25T03:48:24;6.38;92.05
66337;SHT30;53139;45.576;5.304;2023-02-25T03:51:29;6.41;91.76
66337;SHT30;53139;45.576;5.304;2023-02-25T03:54:30;6.36;91.94
66337;SHT30;53139;45.576;5.304;2023-02-25T03:57:36;6.36;92.05
66337;SHT30;53139;45.576;5.304;2023-02-25T04:00:39;6.37;91.35
66337;SHT30;53139;45.576;5.304;2023-02-25T04:03:42;6.34;91.90
66337;SHT30;53139;45.576;5.304;2023-02-25T04:06:42;6.38;90.59
66337;SHT30;53139;45.576;5.304;2023-02-25T04:09:42;6.34;91.64
66337;SHT30;53139;45.576;5.304;2023-02-25T04:12:43;6.36;91.03
66337;SHT30;53139;45.576;5.304;2023-02-25T04:15:43;6.34;90.93
66337;SHT30;53139;45.576;5.304;2023-02-25T04:18:44;6.33;91.71
66337;SHT30;53139;45.576;5.304;2023-02-25T04:21:45;6.34;91.22
66337;SHT30;53139;45.576;5.304;2023-02-25T04:24:45;6.29;90.22
66337;SHT30;53139;45.576;5.304;2023-02-25T04:27:45;6.29;90.44
66337;SHT30;53139;45.576;5.304;2023-02-25T04:30:46;6.24;91.07
66337;SHT30;53139;45.576;5.304;2023-02-25T04:33:46;6.21;91.16
66337;SHT30;53139;45.576;5.304;2023-02-25T04:36:49;6.23;90.22
66337;SHT30;53139;45.576;5.304;2023-02-25T04:39:49;6.21;90.04
66337;SHT30;53139;45.576;5.304;2023-02-25T04:42:50;6.26;88.26
66337;SHT30;53139;45.576;5.304;2023-02-25T04:45:53;6.16;89.39
66337;SHT30;53139;45.576;5.304;2023-02-25T04:48:55;6.17;89.03
66337;SHT30;53139;45.576;5.304;2023-02-25T04:51:55;6.10;89.22
66337;SHT30;53139;45.576;5.304;2023-02-25T04:54:55;6.10;89.65
66337;SHT30;53139;45.576;5.304;2023-02-25T04:57:56;6.09;90.29
66337;SHT30;53139;45.576;5.304;2023-02-25T05:00:59;6.09;89.91
66337;SHT30;53139;45.576;5.304;2023-02-25T05:03:59;6.06;89.33
66337;SHT30;53139;45.576;5.304;2023-02-25T05:07:00;6.06;89.54
66337;SHT30;53139;45.576;5.304;2023-02-25T05:10:00;6.05;89.72
66337;SHT30;53139;45.576;5.304;2023-02-25T05:13:00;6.01;89.55
66337;SHT30;53139;45.576;5.304;2023-02-25T05:16:10;6.03;89.48
66337;SHT30;53139;45.576;5.304;2023-02-25T05:19:18;6.01;90.06
66337;SHT30;53139;45.576;5.304;2023-02-25T05:22:21;5.96;89.45
66337;SHT30;53139;45.576;5.304;2023-02-25T05:25:22;5.96;89.21
66337;SHT30;53139;45.576;5.304;2023-02-25T05:28:22;5.95;88.76
66337;SHT30;53139;45.576;5.304;2023-02-25T05:31:23;5.98;88.53
66337;SHT30;53139;45.576;5.304;2023-02-25T05:34:24;5.93;88.40
66337;SHT30;53139;45.576;5.304;2023-02-25T05:37:25;5.88;89.44
66337;SHT30;53139;45.576;5.304;2023-02-25T05:40:25;5.85;89.73
66337;SHT30;53139;45.576;5.304;2023-02-25T05:43:26;5.82;89.46
66337;SHT30;53139;45.576;5.304;2023-02-25T05:46:26;5.78;89.50
66337;SHT30;53139;45.576;5.304;2023-02-25T05:49:26;5.82;89.46
66337;SHT30;53139;45.576;5.304;2023-02-25T05:52:27;5.76;89.64
66337;SHT30;53139;45.576;5.304;2023-02-25T05:55:27;5.78;88.62
66337;SHT30;53139;45.576;5.304;2023-02-25T05:58:27;5.75;88.80
66337;SHT30;53139;45.576;5.304;2023-02-25T06:01:28;5.78;89.45
66337;SHT30;53139;45.576;5.304;2023-02-25T06:04:30;5.74;89.39
66337;SHT30;53139;45.576;5.304;2023-02-25T06:07:31;5.71;89.53
66337;SHT30;53139;45.576;5.304;2023-02-25T06:10:33;5.71;89.83
66337;SHT30;53139;45.576;5.304;2023-02-25T06:13:37;5.69;89.88
66337;SHT30;53139;45.576;5.304;2023-02-25T06:16:39;5.65;89.87
66337;SHT30;53139;45.576;5.304;2023-02-25T06:19:39;5.67;90.08
66337;SHT30;53139;45.576;5.304;2023-02-25T06:22:39;5.61;90.27
66337;SHT30;53139;45.576;5.304;2023-02-25T06:25:40;5.58;90.72
66337;SHT30;53139;45.576;5.304;2023-02-25T06:28:41;5.59;90.34
66337;SHT30;53139;45.576;5.304;2023-02-25T06:31:42;5.58;90.35
66337;SHT30;53139;45.576;5.304;2023-02-25T06:34:42;5.58;90.77
66337;SHT30;53139;45.576;5.304;2023-02-25T06:37:43;5.58;90.32
66337;SHT30;53139;45.576;5.304;2023-02-25T06:40:43;5.52;90.70
66337;SHT30;53139;45.576;5.304;2023-02-25T06:43:44;5.52;90.35
66337;SHT30;53139;45.576;5.304;2023-02-25T06:46:45;5.55;90.55
66337;SHT30;53139;45.576;5.304;2023-02-25T06:49:45;5.57;90.28
66337;SHT30;53139;45.576;5.304;2023-02-25T06:52:46;5.57;90.27
66337;SHT30;53139;45.576;5.304;2023-02-25T06:55:46;5.54;90.50
66337;SHT30;53139;45.576;5.304;2023-02-25T06:58:47;5.59;90.79
66337;SHT30;53139;45.576;5.304;2023-02-25T07:01:47;5.58;90.42
66337;SHT30;53139;45.576;5.304;2023-02-25T07:04:47;5.61;90.20
66337;SHT30;53139;45.576;5.304;2023-02-25T07:07:48;5.57;90.64
66337;SHT30;53139;45.576;5.304;2023-02-25T07:10:48;5.61;90.75
66337;SHT30;53139;45.576;5.304;2023-02-25T07:13:50;5.54;90.31
66337;SHT30;53139;45.576;5.304;2023-02-25T07:16:50;5.59;90.06
66337;SHT30;53139;45.576;5.304;2023-02-25T07:19:51;5.62;90.33
66337;SHT30;53139;45.576;5.304;2023-02-25T07:22:51;5.62;90.76
66337;SHT30;53139;45.576;5.304;2023-02-25T07:25:52;5.72;90.03
66337;SHT30;53139;45.576;5.304;2023-02-25T07:28:56;5.74;90.22
66337;SHT30;53139;45.576;5.304;2023-02-25T07:31:57;5.74;90.06
66337;SHT30;53139;45.576;5.304;2023-02-25T07:34:59;5.68;89.72
66337;SHT30;53139;45.576;5.304;2023-02-25T07:37:59;5.61;90.05
66337;SHT30;53139;45.576;5.304;2023-02-25T07:41:11;5.67;90.15
66337;SHT30;53139;45.576;5.304;2023-02-25T07:44:30;5.61;89.92
66337;SHT30;53139;45.576;5.304;2023-02-25T07:47:31;5.65;90.12
66337;SHT30;53139;45.576;5.304;2023-02-25T07:50:31;5.78;89.99
66337;SHT30;53139;45.576;5.304;2023-02-25T07:53:32;5.68;89.91
66337;SHT30;53139;45.576;5.304;2023-02-25T07:56:32;5.59;89.92
66337;SHT30;53139;45.576;5.304;2023-02-25T07:59:33;5.58;90.11
66337;SHT30;53139;45.576;5.304;2023-02-25T08:02:33;5.65;90.08
66337;SHT30;53139;45.576;5.304;2023-02-25T08:05:34;5.71;90.59
66337;SHT30;53139;45.576;5.304;2023-02-25T08:08:36;5.76;90.88
66337;SHT30;53139;45.576;5.304;2023-02-25T08:11:38;5.74;90.16
66337;SHT30;53139;45.576;5.304;2023-02-25T08:14:38;5.64;90.06
66337;SHT30;53139;45.576;5.304;2023-02-25T08:17:39;5.75;90.25
66337;SHT30;53139;45.576;5.304;2023-02-25T08:20:44;5.92;89.80
66337;SHT30;53139;45.576;5.304;2023-02-25T08:23:46;5.93;89.48
66337;SHT30;53139;45.576;5.304;2023-02-25T08:26:47;6.05;89.15
66337;SHT30;53139;45.576;5.304;2023-02-25T08:29:48;6.16;89.44
66337;SHT30;53139;45.576;5.304;2023-02-25T08:32:49;6.14;89.57
66337;SHT30;53139;45.576;5.304;2023-02-25T08:35:50;6.14;89.08
66337;SHT30;53139;45.576;5.304;2023-02-25T08:38:52;6.40;88.85
66337;SHT30;53139;45.576;5.304;2023-02-25T08:41:53;6.52;88.25
66337;SHT30;53139;45.576;5.304;2023-02-25T08:44:54;6.81;88.19
66337;SHT30;53139;45.576;5.304;2023-02-25T08:48:13;6.79;88.32
66337;SHT30;53139;45.576;5.304;2023-02-25T08:51:13;6.81;88.02
66337;SHT30;53139;45.576;5.304;2023-02-25T08:54:14;6.95;88.08
66337;SHT30;53139;45.576;5.304;2023-02-25T08:57:14;6.78;87.53
66337;SHT30;53139;45.576;5.304;2023-02-25T09:00:15;7.10;88.23
66337;SHT30;53139;45.576;5.304;2023-02-25T09:03:15;7.24;87.59
66337;SHT30;53139;45.576;5.304;2023-02-25T09:06:17;7.34;87.09
66337;SHT30;53139;45.576;5.304;2023-02-25T09:09:19;7.48;86.70
66337;SHT30;53139;45.576;5.304;2023-02-25T09:12:19;7.79;85.88
66337;SHT30;53139;45.576;5.304;2023-02-25T09:15:20;7.77;85.02
66337;SHT30;53139;45.576;5.304;2023-02-25T09:18:20;8.09;85.65
66337;SHT30;53139;45.576;5.304;2023-02-25T09:21:21;8.65;83.72
66337;SHT30;53139;45.576;5.304;2023-02-25T09:24:22;9.20;83.56
66337;SHT30;53139;45.576;5.304;2023-02-25T09:27:23;9.44;82.40
66337;SHT30;53139;45.576;5.304;2023-02-25T09:30:23;9.48;81.62
66337;SHT30;53139;45.576;5.304;2023-02-25T09:33:24;10.09;81.08
66337;SHT30;53139;45.576;5.304;2023-02-25T09:36:25;10.07;80.72
66337;SHT30;53139;45.576;5.304;2023-02-25T09:39:26;10.05;80.17
66337;SHT30;53139;45.576;5.304;2023-02-25T09:43:38;9.95;79.49
66337;SHT30;53139;45.576;5.304;2023-02-25T09:46:15;9.22;80.11
66337;SHT30;53139;45.576;5.304;2023-02-25T09:49:55;9.07;81.51
66337;SHT30;53139;45.576;5.304;2023-02-25T09:53:12;8.83;80.43
66337;SHT30;53139;45.576;5.304;2023-02-25T09:56:21;8.29;81.12
66337;SHT30;53139;45.576;5.304;2023-02-25T09:59:26;8.67;81.82
66337;SHT30;53139;45.576;5.304;2023-02-25T10:02:35;8.92;80.52
66337;SHT30;53139;45.576;5.304;2023-02-25T10:05:49;8.50;79.73
66337;SHT30;53139;45.576;5.304;2023-02-25T10:22:00;9.17;78.60
66337;SHT30;53139;45.576;5.304;2023-02-25T10:25:27;9.28;78.75
66337;SHT30;53139;45.576;5.304;2023-02-25T10:28:39;9.07;78.56
66337;SHT30;53139;45.576;5.304;2023-02-25T10:31:59;8.85;78.76
66337;SHT30;53139;45.576;5.304;2023-02-25T10:35:20;8.99;78.40
66337;SHT30;53139;45.576;5.304;2023-02-25T10:38:29;9.26;79.16
66337;SHT30;53139;45.576;5.304;2023-02-25T10:41:30;9.17;78.88
66337;SHT30;53139;45.576;5.304;2023-02-25T10:44:30;9.16;78.63
66337;SHT30;53139;45.576;5.304;2023-02-25T10:47:39;9.48;78.46
66337;SHT30;53139;45.576;5.304;2023-02-25T10:50:42;9.48;78.31
66337;SHT30;53139;45.576;5.304;2023-02-25T10:56:58;9.98;79.20
66337;SHT30;53139;45.576;5.304;2023-02-25T11:00:29;9.95;78.11
66337;SHT30;53139;45.576;5.304;2023-02-25T11:07:48;9.90;77.89
66337;SHT30;53139;45.576;5.304;2023-02-25T11:16:02;9.75;77.51
66337;SHT30;53139;45.576;5.304;2023-02-25T11:19:58;10.30;77.31
66337;SHT30;53139;45.576;5.304;2023-02-25T12:24:50;11.23;72.40
66337;SHT30;53139;45.576;5.304;2023-02-25T12:46:03;11.58;71.01
66337;SHT30;53139;45.576;5.304;2023-02-25T12:49:40;11.85;72.04
66337;SHT30;53139;45.576;5.304;2023-02-25T12:57:01;10.58;73.77
66337;SHT30;53139;45.576;5.304;2023-02-25T13:00:27;10.81;74.66
66337;SHT30;53139;45.576;5.304;2023-02-25T13:03:40;10.57;73.90
66337;SHT30;53139;45.576;5.304;2023-02-25T13:06:52;10.60;73.28
66337;SHT30;53139;45.576;5.304;2023-02-25T13:18:39;9.86;75.26
66337;SHT30;53139;45.576;5.304;2023-02-25T13:32:18;10.58;75.47
66337;SHT30;53139;45.576;5.304;2023-02-25T13:35:31;10.50;74.73
66337;SHT30;53139;45.576;5.304;2023-02-25T13:49:08;10.82;72.56
66337;SHT30;53139;45.576;5.304;2023-02-25T13:52:20;10.65;73.40
66337;SHT30;53139;45.576;5.304;2023-02-25T14:03:04;11.15;72.83
66337;SHT30;53139;45.576;5.304;2023-02-25T14:07:09;10.69;71.22
66337;SHT30;53139;45.576;5.304;2023-02-25T14:18:12;10.47;72.63
66337;SHT30;53139;45.576;5.304;2023-02-25T14:48:17;9.61;74.95
66337;SHT30;53139;45.576;5.304;2023-02-25T14:58:37;9.44;74.82
66337;SHT30;53139;45.576;5.304;2023-02-25T15:18:47;9.16;75.12
66337;SHT30;53139;45.576;5.304;2023-02-25T15:21:46;9.16;74.66
66337;SHT30;53139;45.576;5.304;2023-02-25T15:24:49;9.03;74.52
66337;SHT30;53139;45.576;5.304;2023-02-25T15:27:52;8.96;74.60
66337;SHT30;53139;45.576;5.304;2023-02-25T15:40:52;8.51;74.83
66337;SHT30;53139;45.576;5.304;2023-02-25T15:47:17;8.45;74.99
66337;SHT30;53139;45.576;5.304;2023-02-25T15:53:42;8.24;74.24
66337;SHT30;53139;45.576;5.304;2023-02-25T15:56:48;8.14;74.59
66337;SHT30;53139;45.576;5.304;2023-02-25T15:59:50;8.10;74.21
66337;SHT30;53139;45.576;5.304;2023-02-25T16:02:57;8.17;74.69
66337;SHT30;53139;45.576;5.304;2023-02-25T16:09:16;7.88;74.11
66337;SHT30;53139;45.576;5.304;2023-02-25T16:12:17;7.95;74.80
66337;SHT30;53139;45.576;5.304;2023-02-25T16:15:37;7.88;74.60
66337;SHT30;53139;45.576;5.304;2023-02-25T16:18:57;7.88;75.02
66337;SHT30;53139;45.576;5.304;2023-02-25T16:22:06;7.69;74.37
66337;SHT30;53139;45.576;5.304;2023-02-25T16:25:13;7.79;75.57
66337;SHT30;53139;45.576;5.304;2023-02-25T16:31:46;7.61;74.64
66337;SHT30;53139;45.576;5.304;2023-02-25T16:41:44;7.44;74.78
66337;SHT30;53139;45.576;5.304;2023-02-25T16:44:54;7.41;75.02
66337;SHT30;53139;45.576;5.304;2023-02-25T16:48:01;7.28;75.36
66337;SHT30;53139;45.576;5.304;2023-02-25T16:51:09;7.26;75.12
66337;SHT30;53139;45.576;5.304;2023-02-25T16:54:19;7.20;75.05
66337;SHT30;53139;45.576;5.304;2023-02-25T16:57:22;7.19;75.20
66337;SHT30;53139;45.576;5.304;2023-02-25T17:00:23;7.10;75.29
66337;SHT30;53139;45.576;5.304;2023-02-25T17:03:30;7.06;75.33
66337;SHT30;53139;45.576;5.304;2023-02-25T17:06:39;7.00;75.21
66337;SHT30;53139;45.576;5.304;2023-02-25T17:09:55;6.97;75.81
66337;SHT30;53139;45.576;5.304;2023-02-25T17:13:01;6.91;75.01
66337;SHT30;53139;45.576;5.304;2023-02-25T17:16:04;6.84;75.10
66337;SHT30;53139;45.576;5.304;2023-02-25T17:19:07;6.84;74.96
66337;SHT30;53139;45.576;5.304;2023-02-25T17:22:09;6.79;75.32
66337;SHT30;53139;45.576;5.304;2023-02-25T17:25:14;6.74;74.61
66337;SHT30;53139;45.576;5.304;2023-02-25T17:28:20;6.68;74.97
66337;SHT30;53139;45.576;5.304;2023-02-25T17:31:23;6.67;75.00
66337;SHT30;53139;45.576;5.304;2023-02-25T17:34:30;6.50;76.03
66337;SHT30;53139;45.576;5.304;2023-02-25T17:37:32;6.51;75.16
66337;SHT30;53139;45.576;5.304;2023-02-25T17:40:33;6.48;74.97
66337;SHT30;53139;45.576;5.304;2023-02-25T17:43:37;6.47;75.19
66337;SHT30;53139;45.576;5.304;2023-02-25T17:46:40;6.47;75.11
66337;SHT30;53139;45.576;5.304;2023-02-25T17:49:43;6.47;74.50
66337;SHT30;53139;45.576;5.304;2023-02-25T17:52:46;6.41;75.19
66337;SHT30;53139;45.576;5.304;2023-02-25T17:55:47;6.42;74.71
66337;SHT30;53139;45.576;5.304;2023-02-25T17:58:47;6.42;74.76
66337;SHT30;53139;45.576;5.304;2023-02-25T18:01:57;6.44;74.36
66337;SHT30;53139;45.576;5.304;2023-02-25T18:08:18;6.42;74.19
66337;SHT30;53139;45.576;5.304;2023-02-25T18:11:39;6.40;74.24
66337;SHT30;53139;45.576;5.304;2023-02-25T18:14:42;6.41;74.19
66337;SHT30;53139;45.576;5.304;2023-02-25T18:17:49;6.41;73.92
66337;SHT30;53139;45.576;5.304;2023-02-25T18:20:56;6.41;74.11
66337;SHT30;53139;45.576;5.304;2023-02-25T18:23:58;6.38;74.05
66337;SHT30;53139;45.576;5.304;2023-02-25T18:27:02;6.34;74.15
66337;SHT30;53139;45.576;5.304;2023-02-25T18:30:18;6.30;74.45
66337;SHT30;53139;45.576;5.304;2023-02-25T18:33:18;6.36;73.55
66337;SHT30;53139;45.576;5.304;2023-02-25T18:36:25;6.30;73.98
66337;SHT30;53139;45.576;5.304;2023-02-25T18:39:26;6.29;73.92
66337;SHT30;53139;45.576;5.304;2023-02-25T18:42:26;6.23;73.39
66337;SHT30;53139;45.576;5.304;2023-02-25T18:45:28;6.19;73.33
66337;SHT30;53139;45.576;5.304;2023-02-25T18:48:29;6.13;73.54
66337;SHT30;53139;45.576;5.304;2023-02-25T18:51:31;6.07;73.44
66337;SHT30;53139;45.576;5.304;2023-02-25T18:54:32;5.93;73.94
66337;SHT30;53139;45.576;5.304;2023-02-25T18:57:34;5.93;73.66
66337;SHT30;53139;45.576;5.304;2023-02-25T19:00:34;5.89;73.81
66337;SHT30;53139;45.576;5.304;2023-02-25T19:03:37;5.86;74.13
66337;SHT30;53139;45.576;5.304;2023-02-25T19:06:38;5.96;72.81
66337;SHT30;53139;45.576;5.304;2023-02-25T19:09:38;5.93;73.32
66337;SHT30;53139;45.576;5.304;2023-02-25T19:12:39;5.89;73.25
66337;SHT30;53139;45.576;5.304;2023-02-25T19:15:39;5.79;73.17
66337;SHT30;53139;45.576;5.304;2023-02-25T19:18:40;5.71;73.26
66337;SHT30;53139;45.576;5.304;2023-02-25T19:21:41;5.65;73.09
66337;SHT30;53139;45.576;5.304;2023-02-25T19:24:45;5.68;72.70
66337;SHT30;53139;45.576;5.304;2023-02-25T19:27:46;5.64;72.36
66337;SHT30;53139;45.576;5.304;2023-02-25T19:30:47;5.50;73.12
66337;SHT30;53139;45.576;5.304;2023-02-25T19:33:47;5.48;72.76
66337;SHT30;53139;45.576;5.304;2023-02-25T19:36:48;5.51;72.27
66337;SHT30;53139;45.576;5.304;2023-02-25T19:39:48;5.40;72.50
66337;SHT30;53139;45.576;5.304;2023-02-25T19:42:50;5.36;73.02
66337;SHT30;53139;45.576;5.304;2023-02-25T19:45:50;5.31;72.72
66337;SHT30;53139;45.576;5.304;2023-02-25T19:48:53;5.27;72.60
66337;SHT30;53139;45.576;5.304;2023-02-25T19:51:54;5.22;72.22
66337;SHT30;53139;45.576;5.304;2023-02-25T19:54:55;5.06;73.42
66337;SHT30;53139;45.576;5.304;2023-02-25T19:57:55;4.99;72.90
66337;SHT30;53139;45.576;5.304;2023-02-25T20:01:03;4.89;72.85
66337;SHT30;53139;45.576;5.304;2023-02-25T20:04:05;4.88;72.55
66337;SHT30;53139;45.576;5.304;2023-02-25T20:07:06;4.81;72.10
66337;SHT30;53139;45.576;5.304;2023-02-25T20:10:09;4.78;71.60
66337;SHT30;53139;45.576;5.304;2023-02-25T20:13:10;4.72;71.83
66337;SHT30;53139;45.576;5.304;2023-02-25T20:16:10;4.71;71.36
66337;SHT30;53139;45.576;5.304;2023-02-25T20:19:11;4.68;70.79
66337;SHT30;53139;45.576;5.304;2023-02-25T20:22:11;4.62;70.91
66337;SHT30;53139;45.576;5.304;2023-02-25T20:25:12;4.58;71.31
66337;SHT30;53139;45.576;5.304;2023-02-25T20:28:12;4.54;70.81
66337;SHT30;53139;45.576;5.304;2023-02-25T20:31:16;4.47;71.64
66337;SHT30;53139;45.576;5.304;2023-02-25T20:34:19;4.41;71.52
66337;SHT30;53139;45.576;5.304;2023-02-25T20:37:23;4.32;71.88
66337;SHT30;53139;45.576;5.304;2023-02-25T20:40:28;4.33;72.12
66337;SHT30;53139;45.576;5.304;2023-02-25T20:43:28;4.30;72.53
66337;SHT30;53139;45.576;5.304;2023-02-25T20:46:29;4.26;72.05
66337;SHT30;53139;45.576;5.304;2023-02-25T20:49:29;4.27;71.74
66337;SHT30;53139;45.576;5.304;2023-02-25T20:52:30;4.24;71.34
66337;SHT30;53139;45.576;5.304;2023-02-25T20:55:30;4.26;71.41
66337;SHT30;53139;45.576;5.304;2023-02-25T20:58:31;4.24;70.78
66337;SHT30;53139;45.576;5.304;2023-02-25T21:01:31;4.21;71.67
66337;SHT30;53139;45.576;5.304;2023-02-25T21:04:32;4.21;70.59
66337;SHT30;53139;45.576;5.304;2023-02-25T21:07:32;4.13;71.87
66337;SHT30;53139;45.576;5.304;2023-02-25T21:10:33;4.14;71.32
66337;SHT30;53139;45.576;5.304;2023-02-25T21:13:34;4.13;71.11
66337;SHT30;53139;45.576;5.304;2023-02-25T21:16:36;4.09;71.35
66337;SHT30;53139;45.576;5.304;2023-02-25T21:19:37;4.05;71.40
66337;SHT30;53139;45.576;5.304;2023-02-25T21:22:37;4.03;71.35
66337;SHT30;53139;45.576;5.304;2023-02-25T21:25:38;4.02;71.28
66337;SHT30;53139;45.576;5.304;2023-02-25T21:28:39;3.95;71.45
66337;SHT30;53139;45.576;5.304;2023-02-25T21:31:40;3.89;71.54
66337;SHT30;53139;45.576;5.304;2023-02-25T21:34:41;3.83;72.00
66337;SHT30;53139;45.576;5.304;2023-02-25T21:37:41;3.79;71.61
66337;SHT30;53139;45.576;5.304;2023-02-25T21:40:41;3.75;72.05
66337;SHT30;53139;45.576;5.304;2023-02-25T21:43:42;3.71;72.38
66337;SHT30;53139;45.576;5.304;2023-02-25T21:46:43;3.70;72.14
66337;SHT30;53139;45.576;5.304;2023-02-25T21:49:43;3.63;71.97
66337;SHT30;53139;45.576;5.304;2023-02-25T21:52:44;3.61;72.66
66337;SHT30;53139;45.576;5.304;2023-02-25T21:55:44;3.65;72.26
66337;SHT30;53139;45.576;5.304;2023-02-25T21:58:45;3.64;72.05
66337;SHT30;53139;45.576;5.304;2023-02-25T22:01:45;3.63;72.15
66337;SHT30;53139;45.576;5.304;2023-02-25T22:04:46;3.61;72.76
66337;SHT30;53139;45.576;5.304;2023-02-25T22:07:47;3.61;72.14
66337;SHT30;53139;45.576;5.304;2023-02-25T22:10:47;3.58;72.33
66337;SHT30;53139;45.576;5.304;2023-02-25T22:13:48;3.58;71.84
66337;SHT30;53139;45.576;5.304;2023-02-25T22:16:49;3.53;72.45
66337;SHT30;53139;45.576;5.304;2023-02-25T22:19:50;3.53;72.28
66337;SHT30;53139;45.576;5.304;2023-02-25T22:22:50;3.57;72.75
66337;SHT30;53139;45.576;5.304;2023-02-25T22:25:50;3.57;72.10
66337;SHT30;53139;45.576;5.304;2023-02-25T22:28:56;3.53;72.31
66337;SHT30;53139;45.576;5.304;2023-02-25T22:31:57;3.53;72.69
66337;SHT30;53139;45.576;5.304;2023-02-25T22:34:57;3.51;72.46
66337;SHT30;53139;45.576;5.304;2023-02-25T22:37:57;3.48;72.28
66337;SHT30;53139;45.576;5.304;2023-02-25T22:40:58;3.46;72.50
66337;SHT30;53139;45.576;5.304;2023-02-25T22:44:01;3.46;72.14
66337;SHT30;53139;45.576;5.304;2023-02-25T22:47:01;3.43;72.41
66337;SHT30;53139;45.576;5.304;2023-02-25T22:50:02;3.43;73.20
66337;SHT30;53139;45.576;5.304;2023-02-25T22:53:02;3.37;72.66
66337;SHT30;53139;45.576;5.304;2023-02-25T22:56:05;3.34;72.42
66337;SHT30;53139;45.576;5.304;2023-02-25T22:59:06;3.33;72.65
66337;SHT30;53139;45.576;5.304;2023-02-25T23:02:06;3.37;72.72
66337;SHT30;53139;45.576;5.304;2023-02-25T23:05:07;3.34;73.01
66337;SHT30;53139;45.576;5.304;2023-02-25T23:08:09;3.31;72.66
66337;SHT30;53139;45.576;5.304;2023-02-25T23:11:12;3.28;73.13
66337;SHT30;53139;45.576;5.304;2023-02-25T23:14:13;3.26;73.78
66337;SHT30;53139;45.576;5.304;2023-02-25T23:17:14;3.17;72.98
66337;SHT30;53139;45.576;5.304;2023-02-25T23:20:14;3.17;73.07
66337;SHT30;53139;45.576;5.304;2023-02-25T23:23:15;3.16;73.30
66337;SHT30;53139;45.576;5.304;2023-02-25T23:26:19;3.12;73.47
66337;SHT30;53139;45.576;5.304;2023-02-25T23:29:20;3.15;73.89
66337;SHT30;53139;45.576;5.304;2023-02-25T23:32:20;3.06;73.46
66337;SHT30;53139;45.576;5.304;2023-02-25T23:35:21;3.05;73.30
66337;SHT30;53139;45.576;5.304;2023-02-25T23:38:21;3.08;73.51
66337;SHT30;53139;45.576;5.304;2023-02-25T23:41:23;3.08;73.93
66337;SHT30;53139;45.576;5.304;2023-02-25T23:44:23;3.03;74.01
66337;SHT30;53139;45.576;5.304;2023-02-25T23:47:24;3.02;74.45
66337;SHT30;53139;45.576;5.304;2023-02-25T23:50:24;2.95;74.46
66337;SHT30;53139;45.576;5.304;2023-02-25T23:53:26;2.96;74.15
66337;SHT30;53139;45.576;5.304;2023-02-25T23:56:26;2.95;74.69
66337;SHT30;53139;45.576;5.304;2023-02-25T23:59:28;2.92;74.32
